Harahan, Louisiana
Current Conditions -  °F | °C
As of 4:53 PM on Tuesday 21 Oct 2014 (Local Time) from KMSY Reporting Station
Few Clouds Few Clouds  
Wind Chill: 79°   Ceiling: Unl
Heat Index: 79°   Visibility: 10mi
Dew Point: 53°   Wind: 6mph
Humidity: 40%   Direction: 80°E
Pressure: 29.97"   Gusts: NA
Location:  29.9536°N, 90.2034°W
Report Text: KMSY 212153Z 08005KT 10SM FEW150 26/12 A2997 RMK AO2 SLP151 T02610117
Loading
Personal Weather Stations






























Interactive Weather Map
Tropical Storm Tracking
New forecast layout! Learn more

10-Day Weather Forecast

Advertisements
Track Severe Weather on mobile